createdAt,value
2022-08-12T00:01:11.955Z,4.53
2022-08-12T00:03:57.865Z,4.82
2022-08-12T00:06:45.791Z,4.25
2022-08-12T00:09:32.882Z,3.65
2022-08-12T00:12:22.168Z,4.15
2022-08-12T00:15:07.515Z,3.63
2022-08-12T00:17:53.710Z,5.20
2022-08-12T00:20:39.431Z,4.40
2022-08-12T00:23:28.401Z,3.75
2022-08-12T00:26:23.017Z,3.95
2022-08-12T00:29:11.226Z,5.97
2022-08-12T00:31:57.536Z,5.10
2022-08-12T00:34:43.489Z,6.82
2022-08-12T00:37:29.069Z,5.63
2022-08-12T00:40:15.417Z,5.40
2022-08-12T00:42:46.304Z,4.60
2022-08-12T00:45:14.419Z,4.38
2022-08-12T00:47:44.222Z,3.90
2022-08-12T00:50:18.593Z,4.40
2022-08-12T00:52:47.534Z,4.10
2022-08-12T00:55:16.820Z,4.00
2022-08-12T00:57:48.952Z,3.30
2022-08-12T01:00:21.667Z,3.10
2022-08-12T01:02:52.582Z,3.70
2022-08-12T01:05:40.832Z,3.38
2022-08-12T01:08:27.304Z,4.00
2022-08-12T01:11:14.367Z,4.28
2022-08-12T01:13:48.598Z,4.97
2022-08-12T01:16:19.744Z,3.10
2022-08-12T01:18:47.798Z,2.67
2022-08-12T01:21:34.121Z,4.07
2022-08-12T01:24:29.704Z,3.38
2022-08-12T01:26:59.535Z,3.00
2022-08-12T01:29:32.536Z,3.08
2022-08-12T01:32:06.627Z,3.03
2022-08-12T01:37:08.887Z,3.83
2022-08-12T01:40:34.714Z,2.70
2022-08-12T01:42:34.077Z,2.80
2022-08-12T01:45:04.065Z,2.50
2022-08-12T01:47:49.623Z,3.50
2022-08-12T01:50:30.868Z,3.00
2022-08-12T01:53:06.462Z,3.30
2022-08-12T01:55:38.307Z,3.17
2022-08-12T01:58:26.746Z,3.97
2022-08-12T02:00:59.767Z,3.95
2022-08-12T02:04:05.627Z,3.40
2022-08-12T02:07:01.559Z,3.72
2022-08-12T02:10:08.624Z,2.58
2022-08-12T02:12:49.287Z,3.13
2022-08-12T02:15:28.493Z,3.30
2022-08-12T02:18:13.494Z,2.90
2022-08-12T02:20:51.784Z,2.53
2022-08-12T02:23:26.896Z,2.85
2022-08-12T02:25:59.369Z,3.22
2022-08-12T02:28:27.985Z,3.00
2022-08-12T02:31:02.765Z,2.72
2022-08-12T02:33:31.732Z,3.10
2022-08-12T02:36:01.739Z,2.80
2022-08-12T02:38:31.345Z,3.05
2022-08-12T02:41:03.162Z,3.53
2022-08-12T02:43:37.824Z,3.08
2022-08-12T02:46:14.066Z,3.20
2022-08-12T02:48:47.683Z,3.00
2022-08-12T02:51:20.728Z,3.15
2022-08-12T02:54:04.698Z,3.40
2022-08-12T02:56:33.510Z,4.00
2022-08-12T02:59:02.584Z,4.20
2022-08-12T03:01:47.625Z,4.80
2022-08-12T03:04:24.468Z,4.03
2022-08-12T03:07:01.242Z,4.97
2022-08-12T03:10:03.853Z,2.90
2022-08-12T03:12:24.708Z,3.13
2022-08-12T03:14:54.210Z,3.53
2022-08-12T03:17:29.131Z,4.35
2022-08-12T03:20:10.146Z,4.40
2022-08-12T03:22:41.179Z,3.80
2022-08-12T03:25:17.229Z,2.97
2022-08-12T03:27:49.893Z,3.45
2022-08-12T03:30:19.927Z,3.45
2022-08-12T03:32:52.226Z,5.60
2022-08-12T03:35:41.114Z,3.60
2022-08-12T03:38:12.245Z,4.30
2022-08-12T03:41:07.961Z,3.50
2022-08-12T03:44:01.861Z,3.30
2022-08-12T03:46:52.357Z,3.80
2022-08-12T03:49:39.668Z,3.47
2022-08-12T03:52:25.516Z,3.40
2022-08-12T03:55:10.924Z,3.78
2022-08-12T03:57:56.541Z,4.05
2022-08-12T04:00:26.059Z,3.83
2022-08-12T04:03:00.648Z,3.28
2022-08-12T04:05:54.527Z,3.75
2022-08-12T04:08:23.903Z,3.63
2022-08-12T04:11:09.188Z,3.70
2022-08-12T04:13:37.118Z,3.50
2022-08-12T04:16:08.026Z,4.10
2022-08-12T04:18:38.806Z,4.50
2022-08-12T04:21:10.007Z,4.78
2022-08-12T04:23:39.381Z,4.43
2022-08-12T04:26:07.975Z,3.40
2022-08-12T04:28:36.585Z,3.20
2022-08-12T04:31:05.093Z,3.17
2022-08-12T04:33:34.355Z,3.83
2022-08-12T04:36:02.363Z,3.53
2022-08-12T04:38:32.323Z,3.70
2022-08-12T04:41:01.409Z,3.97
2022-08-12T04:43:53.758Z,4.30
2022-08-12T04:46:22.868Z,4.15
2022-08-12T04:48:52.294Z,4.13
2022-08-12T04:51:21.351Z,3.25
2022-08-12T04:53:51.671Z,3.83
2022-08-12T04:56:20.680Z,3.35
2022-08-12T04:58:52.588Z,3.38
2022-08-12T05:01:22.208Z,3.15
2022-08-12T05:03:52.963Z,3.83
2022-08-12T05:06:26.538Z,3.42
2022-08-12T05:08:57.448Z,3.30
2022-08-12T05:11:25.852Z,3.80
2022-08-12T05:13:58.719Z,3.63
2022-08-12T05:16:32.563Z,4.68
2022-08-12T05:19:05.548Z,3.28
2022-08-12T05:21:41.899Z,3.40
2022-08-12T05:24:11.565Z,3.58
2022-08-12T05:26:41.073Z,3.08
2022-08-12T05:30:05.714Z,3.70
2022-08-12T05:32:03.035Z,3.15
2022-08-12T05:34:34.481Z,2.95
2022-08-12T05:37:02.542Z,3.53
2022-08-12T05:39:32.195Z,3.30
2022-08-12T05:42:03.743Z,3.70
2022-08-12T05:44:31.731Z,3.70
2022-08-12T05:47:00.128Z,3.45
2022-08-12T05:49:29.638Z,3.85
2022-08-12T05:51:57.948Z,3.58
2022-08-12T05:54:47.369Z,3.28
2022-08-12T05:57:15.698Z,3.22
2022-08-12T05:59:44.011Z,3.15
2022-08-12T06:02:13.535Z,3.42
2022-08-12T06:04:42.071Z,3.20
2022-08-12T06:08:00.353Z,2.95
2022-08-12T06:10:00.959Z,3.58
2022-08-12T06:12:30.966Z,2.72
2022-08-12T06:14:59.080Z,3.50
2022-08-12T06:17:27.148Z,2.80
2022-08-12T06:20:27.839Z,2.88
2022-08-12T06:22:44.166Z,3.00
2022-08-12T06:25:19.509Z,3.15
2022-08-12T06:28:07.814Z,2.65
2022-08-12T06:30:39.057Z,3.10
2022-08-12T06:33:22.602Z,3.80
2022-08-12T06:35:57.778Z,5.47
2022-08-12T06:38:28.435Z,6.20
2022-08-12T06:41:15.158Z,4.38
2022-08-12T06:44:05.828Z,3.70
2022-08-12T06:46:35.046Z,3.60
2022-08-12T06:49:03.000Z,4.07
2022-08-12T06:51:33.153Z,4.60
2022-08-12T06:54:02.794Z,4.75
2022-08-12T06:57:01.726Z,3.92
2022-08-12T06:59:21.612Z,3.45
2022-08-12T07:01:51.164Z,3.70
2022-08-12T07:04:37.328Z,6.25
2022-08-12T07:07:07.063Z,5.78
2022-08-12T07:10:03.823Z,4.93
2022-08-12T07:12:23.013Z,2.78
2022-08-12T07:14:56.615Z,3.30
2022-08-12T07:17:24.698Z,3.45
2022-08-12T07:19:53.757Z,5.15
2022-08-12T07:22:30.601Z,6.78
2022-08-12T07:25:16.585Z,5.93
2022-08-12T07:27:45.652Z,9.13
2022-08-12T07:30:15.441Z,15.00
2022-08-12T07:32:47.548Z,9.02
2022-08-12T07:35:15.711Z,14.30
2022-08-12T07:37:44.221Z,15.45
2022-08-12T07:40:13.332Z,18.30
2022-08-12T07:42:43.616Z,19.25
2022-08-12T07:45:13.017Z,19.73
2022-08-12T07:47:43.964Z,18.63
2022-08-12T07:50:13.885Z,18.42
2022-08-12T07:52:44.787Z,22.15
2022-08-12T07:55:14.916Z,26.95
2022-08-12T07:57:59.443Z,28.33
2022-08-12T08:00:30.572Z,30.83
2022-08-12T08:03:00.464Z,33.40
2022-08-12T08:05:32.115Z,32.88
2022-08-12T08:08:02.549Z,32.63
2022-08-12T08:10:31.572Z,36.92
2022-08-12T08:13:04.340Z,42.15
2022-08-12T08:16:01.154Z,40.85
2022-08-12T08:18:27.557Z,43.28
2022-08-12T08:20:57.536Z,41.05
2022-08-12T08:23:56.039Z,38.90
2022-08-12T08:26:26.520Z,34.72
2022-08-12T08:28:54.806Z,31.05
2022-08-12T08:31:23.285Z,31.40
2022-08-12T08:34:04.982Z,27.60
2022-08-12T08:36:43.986Z,29.30
2022-08-12T08:39:17.024Z,29.52
2022-08-12T08:42:18.278Z,25.27
2022-08-12T08:44:49.727Z,21.50
2022-08-12T08:47:26.759Z,21.45
2022-08-12T08:50:01.239Z,21.73
2022-08-12T08:52:39.271Z,20.27
2022-08-12T08:55:09.518Z,18.95
2022-08-12T08:57:43.131Z,21.67
2022-08-12T09:00:15.750Z,28.23
2022-08-12T09:02:49.489Z,26.15
2022-08-12T09:06:01.638Z,30.35
2022-08-12T09:12:07.614Z,36.45
2022-08-12T09:14:18.725Z,29.52
2022-08-12T09:16:50.060Z,29.30
2022-08-12T09:19:27.257Z,26.63
2022-08-12T09:22:00.287Z,21.58
2022-08-12T09:24:30.044Z,19.77
2022-08-12T09:26:58.967Z,16.38
2022-08-12T09:30:08.999Z,14.02
2022-08-12T09:32:56.542Z,12.93
2022-08-12T09:35:21.963Z,7.90
2022-08-12T09:37:58.350Z,8.40
2022-08-12T09:40:57.233Z,7.55
2022-08-12T09:43:34.358Z,7.05
2022-08-12T09:46:19.375Z,5.70
2022-08-12T09:48:56.765Z,5.47
2022-08-12T09:51:37.959Z,4.22
2022-08-12T09:54:33.862Z,3.55
2022-08-12T09:58:45.791Z,3.47
2022-08-12T10:00:15.054Z,9.73
2022-08-12T10:02:58.718Z,15.05
2022-08-12T10:06:11.912Z,26.95
2022-08-12T10:08:16.973Z,22.70
2022-08-12T10:11:05.550Z,23.17
2022-08-12T10:13:45.259Z,39.33
2022-08-12T10:16:22.038Z,32.15
2022-08-12T10:18:53.678Z,28.55
2022-08-12T10:21:24.022Z,30.15
2022-08-12T10:24:06.345Z,32.20
2022-08-12T10:26:54.592Z,30.35
2022-08-12T10:30:02.858Z,12.27
2022-08-12T10:32:44.573Z,23.40
2022-08-12T10:35:16.620Z,27.23
2022-08-12T10:38:34.602Z,25.60
2022-08-12T10:40:37.665Z,20.25
2022-08-12T10:43:25.312Z,19.95
2022-08-12T10:45:58.366Z,34.28
2022-08-12T10:48:34.267Z,26.23
2022-08-12T10:52:03.443Z,38.03
2022-08-12T10:53:54.288Z,27.77
2022-08-12T10:56:34.900Z,29.80
2022-08-12T10:59:10.903Z,16.92
2022-08-12T11:04:17.895Z,21.58
2022-08-12T11:04:45.122Z,17.80
2022-08-12T11:08:36.596Z,23.95
2022-08-12T11:10:07.004Z,17.88
2022-08-12T11:12:58.407Z,21.35
2022-08-12T11:15:33.249Z,26.38
2022-08-12T11:18:18.495Z,22.92
2022-08-12T11:20:49.100Z,20.92
2022-08-12T11:23:25.616Z,20.92
2022-08-12T11:26:06.995Z,6.75
2022-08-12T11:28:36.993Z,21.67
2022-08-12T11:31:13.239Z,13.13
2022-08-12T11:34:05.378Z,8.18
2022-08-12T11:36:32.265Z,4.18
2022-08-12T11:39:04.276Z,3.80
2022-08-12T11:41:32.997Z,3.28
2022-08-12T11:44:02.025Z,3.72
2022-08-12T11:46:52.768Z,3.67
2022-08-12T11:49:31.458Z,3.95
2022-08-12T11:52:27.937Z,3.90
2022-08-12T11:54:54.295Z,4.55
2022-08-12T11:58:09.499Z,3.92
2022-08-12T12:03:01.917Z,5.30
2022-08-12T12:05:41.897Z,4.50
2022-08-12T12:08:38.366Z,5.38
2022-08-12T12:11:09.519Z,5.70
2022-08-12T12:14:08.228Z,6.82
2022-08-12T12:16:26.160Z,7.80
2022-08-12T12:18:55.575Z,7.07
2022-08-12T12:21:47.227Z,5.55
2022-08-12T12:24:11.717Z,10.00
2022-08-12T12:26:39.754Z,7.80
2022-08-12T12:30:13.749Z,8.68
2022-08-12T12:32:09.940Z,6.45
2022-08-12T12:38:05.369Z,6.85
2022-08-12T12:40:16.938Z,6.03
2022-08-12T12:42:55.446Z,3.78
2022-08-12T12:45:27.125Z,3.97
2022-08-12T12:47:57.272Z,5.28
2022-08-12T12:50:35.739Z,6.75
2022-08-12T12:53:04.417Z,9.00
2022-08-12T12:55:36.016Z,12.50
2022-08-12T12:58:04.572Z,8.77
2022-08-12T13:00:33.754Z,7.55
2022-08-12T13:03:02.205Z,6.43
2022-08-12T13:05:42.089Z,8.73
2022-08-12T13:08:27.851Z,11.73
2022-08-12T13:11:00.737Z,14.85
2022-08-12T13:14:10.120Z,12.40
2022-08-12T13:16:21.671Z,10.40
2022-08-12T13:18:50.442Z,11.02
2022-08-12T13:21:32.760Z,10.57
2022-08-12T13:24:09.620Z,8.27
2022-08-12T13:26:40.225Z,8.50
2022-08-12T13:29:11.110Z,11.30
2022-08-12T13:32:18.542Z,12.57
2022-08-12T13:34:34.757Z,9.60
2022-08-12T13:37:09.859Z,9.23
2022-08-12T13:39:38.572Z,11.80
2022-08-12T13:42:13.883Z,9.45
2022-08-12T13:44:43.098Z,11.18
2022-08-12T13:47:19.686Z,15.40
2022-08-12T13:49:54.773Z,13.35
2022-08-12T13:52:25.663Z,11.98
2022-08-12T13:54:55.837Z,10.48
2022-08-12T13:57:26.523Z,9.93
2022-08-12T13:59:55.483Z,9.27
2022-08-12T14:02:28.547Z,9.50
2022-08-12T14:04:57.118Z,8.10
2022-08-12T14:07:27.505Z,9.57
2022-08-12T14:10:24.849Z,6.45
2022-08-12T14:12:57.678Z,6.25
2022-08-12T14:15:35.062Z,7.22
2022-08-12T14:18:14.670Z,7.18
2022-08-12T14:20:47.611Z,12.18
2022-08-12T14:24:05.159Z,12.55
2022-08-12T14:26:12.085Z,12.30
2022-08-12T14:28:45.165Z,16.17
2022-08-12T14:31:31.933Z,17.48
2022-08-12T14:34:05.066Z,14.80
2022-08-12T14:36:34.054Z,12.13
2022-08-12T14:39:05.010Z,16.65
2022-08-12T14:41:36.962Z,13.35
2022-08-12T14:44:58.893Z,10.40
2022-08-12T14:47:07.761Z,8.82
2022-08-12T14:50:34.694Z,8.52
2022-08-12T14:53:50.774Z,8.07
2022-08-12T14:58:03.767Z,6.53
2022-08-12T15:00:52.319Z,7.90
2022-08-12T15:03:23.326Z,10.15
2022-08-12T15:06:05.380Z,7.07
2022-08-12T15:08:37.349Z,5.80
2022-08-12T15:11:13.635Z,8.52
2022-08-12T15:13:46.007Z,12.18
2022-08-12T15:16:18.794Z,9.38
2022-08-12T15:18:50.571Z,10.35
2022-08-12T15:21:24.214Z,13.40
2022-08-12T15:23:55.595Z,15.07
2022-08-12T15:26:35.733Z,13.32
2022-08-12T15:29:06.754Z,10.55
2022-08-12T15:32:02.002Z,8.80
2022-08-12T15:34:30.883Z,7.72
2022-08-12T15:36:58.942Z,7.38
2022-08-12T15:39:28.497Z,6.63
2022-08-12T15:42:01.842Z,6.95
2022-08-12T15:44:37.997Z,7.85
2022-08-12T15:47:10.002Z,5.82
2022-08-12T15:49:43.441Z,6.10
2022-08-12T15:52:28.788Z,5.55
2022-08-12T15:55:05.893Z,4.88
2022-08-12T15:57:53.470Z,4.80
2022-08-12T16:00:32.856Z,4.50
2022-08-12T16:03:05.340Z,4.70
2022-08-12T16:06:15.663Z,4.80
2022-08-12T16:08:27.615Z,3.85
2022-08-12T16:10:56.945Z,4.03
2022-08-12T16:13:34.562Z,4.88
2022-08-12T16:16:12.273Z,3.78
2022-08-12T16:18:57.876Z,3.58
2022-08-12T16:21:51.291Z,3.80
2022-08-12T16:24:18.647Z,3.35
2022-08-12T16:26:51.343Z,3.08
2022-08-12T16:29:52.595Z,3.33
2022-08-12T16:32:24.516Z,3.22
2022-08-12T16:35:00.601Z,3.35
2022-08-12T16:38:25.135Z,2.90
2022-08-12T16:40:22.623Z,3.00
2022-08-12T16:42:54.407Z,3.08
2022-08-12T16:46:05.269Z,3.65
2022-08-12T16:48:35.504Z,3.20
2022-08-12T16:51:09.468Z,4.15
2022-08-12T16:53:44.548Z,4.00
2022-08-12T16:56:15.616Z,3.70
2022-08-12T16:58:45.105Z,3.35
2022-08-12T17:01:19.895Z,3.70
2022-08-12T17:04:04.506Z,4.15
2022-08-12T17:06:36.685Z,3.70
2022-08-12T17:09:17.772Z,3.63
2022-08-12T17:11:49.080Z,3.80
2022-08-12T17:14:20.260Z,4.15
2022-08-12T17:16:55.545Z,3.20
2022-08-12T17:20:16.919Z,3.63
2022-08-12T17:22:16.554Z,4.70
2022-08-12T17:24:50.593Z,6.13
2022-08-12T17:27:24.494Z,5.13
2022-08-12T17:30:01.475Z,5.22
2022-08-12T17:32:35.878Z,5.75
2022-08-12T17:35:29.977Z,7.18
2022-08-12T17:38:11.833Z,8.23
2022-08-12T17:40:41.413Z,9.27
2022-08-12T17:43:57.627Z,6.30
2022-08-12T17:46:02.971Z,6.50
2022-08-12T17:48:35.052Z,7.03
2022-08-12T17:51:15.481Z,5.40
2022-08-12T17:54:10.937Z,6.47
2022-08-12T17:56:37.369Z,7.80
2022-08-12T17:59:07.660Z,7.50
2022-08-12T18:01:36.967Z,5.82
2022-08-12T18:04:20.951Z,6.97
2022-08-12T18:06:51.469Z,7.47
2022-08-12T18:09:19.826Z,5.80
2022-08-12T18:12:08.136Z,6.90
2022-08-12T18:14:40.949Z,5.07
2022-08-12T18:17:12.039Z,5.22
2022-08-12T18:20:06.280Z,4.60
2022-08-12T18:22:32.939Z,5.18
2022-08-12T18:25:05.097Z,5.88
2022-08-12T18:27:44.558Z,6.05
2022-08-12T18:30:29.192Z,5.93
2022-08-12T18:33:03.142Z,5.00
2022-08-12T18:35:47.890Z,4.28
2022-08-12T18:38:24.628Z,5.00
2022-08-12T18:41:21.521Z,4.95
2022-08-12T18:43:59.185Z,5.00
2022-08-12T18:46:34.962Z,5.70
2022-08-12T18:49:18.146Z,6.30
2022-08-12T18:51:55.651Z,3.63
2022-08-12T18:54:34.700Z,7.05
2022-08-12T18:57:07.097Z,8.85
2022-08-12T19:00:00.869Z,5.43
2022-08-12T19:02:36.071Z,3.60
2022-08-12T19:05:10.601Z,3.70
2022-08-12T19:07:57.983Z,3.47
2022-08-12T19:10:30.917Z,2.60
2022-08-12T19:13:24.123Z,5.75
2022-08-12T19:15:58.053Z,5.20
2022-08-12T19:18:31.112Z,2.72
2022-08-12T19:21:00.440Z,2.92
2022-08-12T19:23:36.368Z,3.75
2022-08-12T19:26:10.574Z,7.60
2022-08-12T19:28:40.819Z,4.80
2022-08-12T19:31:55.438Z,7.15
2022-08-12T19:37:22.973Z,5.40
2022-08-12T19:40:09.495Z,6.45
2022-08-12T19:42:57.412Z,2.58
2022-08-12T19:45:43.666Z,3.25
2022-08-12T19:48:18.742Z,2.58
2022-08-12T19:50:50.365Z,3.33
2022-08-12T19:53:22.549Z,3.30
2022-08-12T19:55:54.906Z,2.20
2022-08-12T19:58:24.554Z,2.50
2022-08-12T20:00:56.554Z,2.45
2022-08-12T20:03:38.432Z,2.22
2022-08-12T20:06:13.942Z,2.60
2022-08-12T20:08:47.964Z,2.47
2022-08-12T20:12:11.678Z,2.47
2022-08-12T20:14:09.408Z,2.38
2022-08-12T20:16:53.066Z,2.10
2022-08-12T20:19:53.262Z,2.65
2022-08-12T20:22:23.896Z,1.98
2022-08-12T20:24:57.827Z,2.15
2022-08-12T20:28:03.335Z,2.30
2022-08-12T20:30:52.877Z,2.00
2022-08-12T20:33:18.475Z,2.00
2022-08-12T20:36:13.007Z,14.63
2022-08-12T20:38:38.300Z,10.05
2022-08-12T20:41:14.797Z,5.00
2022-08-12T20:43:51.991Z,5.82
2022-08-12T20:46:21.236Z,5.10
2022-08-12T20:48:55.368Z,3.13
2022-08-12T20:51:27.567Z,3.80
2022-08-12T20:53:59.448Z,3.95
2022-08-12T20:56:33.450Z,5.45
2022-08-12T20:59:10.398Z,4.30
2022-08-12T21:01:46.652Z,2.70
2022-08-12T21:04:36.019Z,2.45
2022-08-12T21:07:08.525Z,3.65
2022-08-12T21:09:42.188Z,2.67
2022-08-12T21:12:28.617Z,2.83
2022-08-12T21:15:24.073Z,2.22
2022-08-12T21:18:10.826Z,2.63
2022-08-12T21:23:21.461Z,3.28
2022-08-12T21:25:50.953Z,5.88
2022-08-12T21:28:30.834Z,3.60
2022-08-12T21:32:37.939Z,4.60
2022-08-12T21:34:07.687Z,3.63
2022-08-12T21:36:39.873Z,2.90
2022-08-12T21:39:19.061Z,4.45
2022-08-12T21:41:51.451Z,4.00
2022-08-12T21:44:24.097Z,3.38
2022-08-12T21:47:21.071Z,3.60
2022-08-12T21:49:55.161Z,5.72
2022-08-12T21:52:34.118Z,4.43
2022-08-12T21:55:03.513Z,3.60
2022-08-12T21:57:36.360Z,5.32
2022-08-12T22:00:18.960Z,3.67
2022-08-12T22:03:05.751Z,3.60
2022-08-12T22:05:53.609Z,2.85
2022-08-12T22:08:22.377Z,2.55
2022-08-12T22:10:56.610Z,2.55
2022-08-12T22:14:07.357Z,2.10
2022-08-12T22:16:15.643Z,3.72
2022-08-12T22:18:50.174Z,6.13
2022-08-12T22:21:22.247Z,4.75
2022-08-12T22:24:05.050Z,4.13
2022-08-12T22:26:37.240Z,3.50
2022-08-12T22:29:24.054Z,5.00
2022-08-12T22:31:55.766Z,9.73
2022-08-12T22:34:33.452Z,4.32
2022-08-12T22:37:02.510Z,6.78
2022-08-12T22:39:31.613Z,4.72
2022-08-12T22:42:19.808Z,4.40
2022-08-12T22:45:05.696Z,3.45
2022-08-12T22:47:54.857Z,3.03
2022-08-12T22:50:28.760Z,2.58
2022-08-12T22:53:16.364Z,3.47
2022-08-12T22:56:00.159Z,2.90
2022-08-12T22:58:40.847Z,3.05
2022-08-12T23:01:10.899Z,3.60
2022-08-12T23:03:49.088Z,3.83
2022-08-12T23:06:23.773Z,4.15
2022-08-12T23:11:23.677Z,5.55
2022-08-12T23:13:56.944Z,6.13
2022-08-12T23:16:31.461Z,4.93
2022-08-12T23:19:11.004Z,3.83
2022-08-12T23:22:05.890Z,6.25
2022-08-12T23:24:53.891Z,6.20
2022-08-12T23:27:50.793Z,6.25
2022-08-12T23:30:31.232Z,7.47
2022-08-12T23:33:01.483Z,11.82
2022-08-12T23:35:58.789Z,10.77
2022-08-12T23:38:31.294Z,8.15
2022-08-12T23:41:00.888Z,3.85
2022-08-12T23:43:38.743Z,4.85
2022-08-12T23:46:10.769Z,5.95
2022-08-12T23:48:40.054Z,5.22
2022-08-12T23:51:23.617Z,5.35
2022-08-12T23:53:56.358Z,5.47
2022-08-12T23:56:29.227Z,5.07
2022-08-12T23:58:58.592Z,3.17
